createdAt,value
2018-07-16T00:01:13.541Z,72.10
2018-07-16T00:03:42.139Z,72.20
2018-07-16T00:06:10.759Z,72.50
2018-07-16T00:08:40.092Z,72.80
2018-07-16T00:11:08.711Z,73.00
2018-07-16T00:13:37.310Z,73.10
2018-07-16T00:16:05.943Z,73.40
2018-07-16T00:18:34.718Z,73.50
2018-07-16T00:21:03.336Z,73.50
2018-07-16T00:23:32.746Z,73.50
2018-07-16T00:26:01.338Z,73.50
2018-07-16T00:28:30.025Z,73.40
2018-07-16T00:30:58.624Z,73.50
2018-07-16T00:33:27.808Z,73.70
2018-07-16T00:35:56.412Z,73.70
2018-07-16T00:38:25.736Z,73.70
2018-07-16T00:43:22.574Z,74.40
2018-07-16T00:45:51.205Z,74.10
2018-07-16T00:50:48.869Z,74.30
2018-07-16T00:53:17.592Z,74.30
2018-07-16T00:55:46.242Z,74.40
2018-07-16T00:58:14.794Z,74.40
2018-07-16T01:00:44.637Z,74.50
2018-07-16T01:03:13.270Z,74.40
2018-07-16T01:05:41.906Z,75.30
2018-07-16T01:08:10.525Z,75.30
2018-07-16T01:10:39.134Z,75.40
2018-07-16T01:13:07.762Z,76.20
2018-07-16T01:15:36.424Z,75.80
2018-07-16T01:18:05.354Z,76.00
2018-07-16T01:20:33.946Z,76.00
2018-07-16T01:23:03.318Z,76.20
2018-07-16T01:25:32.532Z,76.30
2018-07-16T01:28:01.116Z,76.40
2018-07-16T01:30:30.238Z,76.50
2018-07-16T01:32:58.841Z,76.50
2018-07-16T01:35:27.460Z,76.70
2018-07-16T01:37:56.039Z,76.20
2018-07-16T01:40:24.613Z,77.00
2018-07-16T01:42:53.921Z,76.80
2018-07-16T01:45:22.529Z,77.10
2018-07-16T01:47:51.165Z,77.50
2018-07-16T01:50:19.821Z,77.50
2018-07-16T01:52:48.380Z,77.60
2018-07-16T01:55:17.038Z,77.80
2018-07-16T01:57:45.638Z,77.50
2018-07-16T02:00:14.234Z,78.10
2018-07-16T02:02:42.850Z,78.10
2018-07-16T02:05:12.080Z,78.60
2018-07-16T02:07:40.766Z,78.80
2018-07-16T02:10:09.417Z,78.90
2018-07-16T02:12:38.007Z,78.80
2018-07-16T02:15:06.746Z,79.00
2018-07-16T02:17:35.659Z,79.30
2018-07-16T02:20:07.001Z,79.30
2018-07-16T02:22:36.193Z,79.60
2018-07-16T02:25:05.608Z,79.60
2018-07-16T02:27:34.392Z,79.80
2018-07-16T02:30:03.286Z,79.80
2018-07-16T02:32:32.508Z,80.20
2018-07-16T02:35:01.157Z,80.20
2018-07-16T02:37:29.797Z,80.40
2018-07-16T02:39:58.377Z,80.70
2018-07-16T02:42:27.008Z,81.00
2018-07-16T02:44:55.622Z,81.10
2018-07-16T02:47:24.238Z,81.20
2018-07-16T02:49:52.854Z,81.20
2018-07-16T02:52:21.440Z,81.20
2018-07-16T02:54:50.098Z,82.30
2018-07-16T02:57:18.862Z,81.70
2018-07-16T02:59:47.478Z,81.70
2018-07-16T03:02:19.368Z,81.70
2018-07-16T03:04:48.242Z,81.70
2018-07-16T03:07:16.863Z,81.80
2018-07-16T03:09:46.215Z,81.80
2018-07-16T03:12:15.411Z,82.00
2018-07-16T03:14:44.076Z,82.40
2018-07-16T03:17:12.827Z,82.30
2018-07-16T03:19:41.616Z,82.70
2018-07-16T03:22:10.264Z,82.90
2018-07-16T03:24:39.376Z,82.50
2018-07-16T03:27:07.984Z,82.80
2018-07-16T03:29:36.689Z,83.10
2018-07-16T03:32:05.763Z,82.90
2018-07-16T03:34:35.008Z,83.00
2018-07-16T03:37:03.701Z,83.10
2018-07-16T03:39:32.298Z,82.70
2018-07-16T03:42:00.924Z,84.20
2018-07-16T03:44:29.591Z,83.40
2018-07-16T03:46:58.177Z,83.40
2018-07-16T03:49:26.760Z,83.70
2018-07-16T03:51:55.440Z,83.70
2018-07-16T03:54:24.093Z,83.50
2018-07-16T03:56:52.747Z,83.40
2018-07-16T03:59:22.077Z,83.70
2018-07-16T04:01:50.676Z,83.70
2018-07-16T04:04:19.264Z,84.20
2018-07-16T04:06:47.881Z,84.00
2018-07-16T04:11:45.736Z,83.70
2018-07-16T04:14:14.341Z,84.00
2018-07-16T04:16:43.521Z,84.40
2018-07-16T04:19:12.215Z,84.40
2018-07-16T04:21:40.859Z,84.10
2018-07-16T04:24:09.707Z,83.70
2018-07-16T04:26:39.106Z,83.70
2018-07-16T04:29:08.308Z,83.70
2018-07-16T04:31:37.221Z,84.30
2018-07-16T04:34:06.094Z,84.10
2018-07-16T04:36:36.130Z,84.10
2018-07-16T04:39:05.955Z,83.90
2018-07-16T04:41:35.031Z,84.10
2018-07-16T04:44:03.924Z,84.10
2018-07-16T04:46:32.609Z,84.10
2018-07-16T04:49:01.240Z,84.20
2018-07-16T04:51:29.826Z,84.30
2018-07-16T04:53:58.424Z,84.40
2018-07-16T04:56:27.633Z,84.80
2018-07-16T04:58:56.265Z,84.10
2018-07-16T05:01:24.849Z,83.90
2018-07-16T05:03:55.024Z,84.20
2018-07-16T05:08:52.067Z,84.40
2018-07-16T05:11:20.688Z,84.50
2018-07-16T05:13:49.337Z,84.80
2018-07-16T05:16:18.110Z,85.10
2018-07-16T05:18:46.693Z,84.50
2018-07-16T05:21:15.386Z,84.80
2018-07-16T05:23:43.986Z,84.50
2018-07-16T05:26:13.385Z,84.20
2018-07-16T05:28:42.027Z,84.20
2018-07-16T05:31:10.631Z,83.80
2018-07-16T05:33:39.945Z,83.60
2018-07-16T05:36:08.537Z,83.10
2018-07-16T05:38:37.270Z,83.10
2018-07-16T05:41:05.966Z,83.50
2018-07-16T05:43:35.166Z,84.10
2018-07-16T05:46:04.016Z,83.50
2018-07-16T05:48:32.625Z,83.90
2018-07-16T05:51:01.264Z,83.00
2018-07-16T05:53:29.886Z,83.30
2018-07-16T05:55:58.698Z,82.90
2018-07-16T05:58:27.319Z,82.60
2018-07-16T06:00:55.960Z,82.40
2018-07-16T06:03:24.697Z,81.80
2018-07-16T06:08:22.446Z,82.80
2018-07-16T06:10:51.215Z,81.50
2018-07-16T06:13:19.801Z,81.40
2018-07-16T06:15:48.418Z,80.50
2018-07-16T06:18:17.034Z,80.80
2018-07-16T06:20:45.661Z,80.60
2018-07-16T06:23:14.877Z,80.40
2018-07-16T06:25:43.486Z,80.70
2018-07-16T06:28:12.265Z,80.00
2018-07-16T06:30:41.141Z,80.20
2018-07-16T06:33:09.831Z,80.00
2018-07-16T06:35:38.476Z,79.80
2018-07-16T06:38:07.219Z,79.60
2018-07-16T06:40:36.198Z,78.80
2018-07-16T06:43:04.749Z,78.80
2018-07-16T06:45:35.814Z,78.70
2018-07-16T06:48:04.792Z,78.60
2018-07-16T06:50:34.159Z,77.60
2018-07-16T06:53:08.669Z,77.70
2018-07-16T06:55:46.199Z,76.40
2018-07-16T06:58:18.214Z,76.80
2018-07-16T07:00:49.096Z,77.10
2018-07-16T07:03:19.817Z,75.90
2018-07-16T07:05:51.454Z,76.00
2018-07-16T07:08:23.389Z,76.50
2018-07-16T07:10:54.177Z,75.80
2018-07-16T07:13:29.254Z,76.80
2018-07-16T07:16:01.963Z,76.10
2018-07-16T07:18:30.804Z,74.00
2018-07-16T07:21:00.073Z,74.30
2018-07-16T07:23:29.204Z,72.90
2018-07-16T07:25:58.623Z,71.90
2018-07-16T07:28:27.530Z,72.60
2018-07-16T07:30:56.533Z,72.80
2018-07-16T07:33:25.727Z,74.20
2018-07-16T07:35:54.541Z,72.00
2018-07-16T07:38:24.400Z,71.90
2018-07-16T07:40:53.703Z,72.40
2018-07-16T07:43:22.399Z,71.50
2018-07-16T07:45:51.228Z,71.60
2018-07-16T07:48:19.969Z,69.40
2018-07-16T07:50:48.652Z,69.80
2018-07-16T07:53:17.455Z,69.50
2018-07-16T07:55:46.749Z,68.00
2018-07-16T07:58:16.032Z,69.70
2018-07-16T08:00:44.949Z,69.80
2018-07-16T08:03:14.341Z,70.80
2018-07-16T08:05:47.231Z,68.80
2018-07-16T08:08:16.726Z,67.50
2018-07-16T08:10:46.163Z,66.80
2018-07-16T08:13:15.061Z,67.30
2018-07-16T08:15:43.967Z,64.80
2018-07-16T08:18:12.776Z,63.20
2018-07-16T08:20:41.636Z,62.10
2018-07-16T08:23:11.045Z,60.80
2018-07-16T08:25:41.107Z,59.60
2018-07-16T08:28:11.183Z,60.60
2018-07-16T08:30:40.009Z,59.20
2018-07-16T08:33:08.920Z,58.10
2018-07-16T08:38:06.302Z,57.80
2018-07-16T08:45:33.358Z,55.40
2018-07-16T08:48:02.163Z,54.70
2018-07-16T08:50:30.940Z,55.70
2018-07-16T08:52:59.774Z,57.50
2018-07-16T08:55:29.137Z,53.60
2018-07-16T08:57:58.688Z,52.50
2018-07-16T09:00:27.988Z,51.80
2018-07-16T09:02:56.811Z,50.90
2018-07-16T09:05:26.403Z,53.30
2018-07-16T09:07:56.424Z,53.50
2018-07-16T09:10:25.736Z,49.60
2018-07-16T09:12:55.678Z,52.30
2018-07-16T09:15:25.287Z,51.60
2018-07-16T09:17:54.059Z,50.70
2018-07-16T09:20:23.087Z,47.90
2018-07-16T09:22:51.909Z,47.90
2018-07-16T09:25:20.804Z,47.40
2018-07-16T09:27:50.948Z,47.30
2018-07-16T09:30:19.716Z,50.10
2018-07-16T09:32:48.634Z,47.30
2018-07-16T09:35:17.883Z,46.10
2018-07-16T09:37:46.691Z,45.50
2018-07-16T09:40:15.476Z,45.70
2018-07-16T09:42:44.401Z,44.30
2018-07-16T09:45:14.227Z,43.80
2018-07-16T09:47:42.985Z,43.90
2018-07-16T09:50:12.390Z,41.80
2018-07-16T09:52:41.352Z,43.20
2018-07-16T09:55:10.919Z,42.80
2018-07-16T09:57:40.099Z,43.10
2018-07-16T10:00:09.580Z,43.20
2018-07-16T10:02:38.941Z,42.60
2018-07-16T10:05:08.387Z,41.40
2018-07-16T10:07:38.312Z,42.00
2018-07-16T10:10:07.635Z,40.50
2018-07-16T10:12:37.181Z,40.30
2018-07-16T10:15:06.648Z,39.10
2018-07-16T10:17:35.850Z,39.10
2018-07-16T10:20:04.884Z,38.70
2018-07-16T10:22:34.140Z,37.70
2018-07-16T10:25:03.650Z,37.60
2018-07-16T10:27:32.974Z,42.00
2018-07-16T10:30:02.205Z,39.20
2018-07-16T10:32:31.206Z,37.60
2018-07-16T10:35:00.812Z,39.20
2018-07-16T10:37:29.869Z,39.30
2018-07-16T10:39:59.205Z,38.80
2018-07-16T10:42:29.413Z,36.60
2018-07-16T10:44:58.658Z,34.50
2018-07-16T10:47:27.688Z,34.30
2018-07-16T10:49:56.788Z,36.60
2018-07-16T10:52:26.429Z,34.40
2018-07-16T10:54:55.513Z,35.50
2018-07-16T10:57:25.568Z,34.00
2018-07-16T10:59:54.603Z,36.60
2018-07-16T11:02:23.752Z,33.40
2018-07-16T11:04:53.834Z,37.30
2018-07-16T11:07:24.143Z,37.20
2018-07-16T11:09:53.423Z,34.50
2018-07-16T11:12:22.709Z,34.50
2018-07-16T11:14:52.006Z,37.30
2018-07-16T11:17:21.631Z,31.60
2018-07-16T11:19:51.486Z,35.20
2018-07-16T11:22:20.328Z,33.00
2018-07-16T11:24:49.348Z,36.70
2018-07-16T11:27:18.451Z,36.10
2018-07-16T11:29:47.353Z,34.70
2018-07-16T11:32:16.325Z,35.20
2018-07-16T11:34:45.431Z,34.40
2018-07-16T11:37:14.407Z,36.00
2018-07-16T11:39:44.075Z,38.60
2018-07-16T11:42:14.569Z,33.40
2018-07-16T11:44:43.761Z,32.90
2018-07-16T11:47:13.301Z,36.40
2018-07-16T11:49:42.485Z,34.50
2018-07-16T11:52:11.673Z,34.00
2018-07-16T11:54:40.665Z,35.30
2018-07-16T11:57:09.835Z,35.10
2018-07-16T11:59:45.330Z,33.60
2018-07-16T12:02:14.751Z,33.70
2018-07-16T12:04:44.035Z,33.80
2018-07-16T12:07:13.122Z,30.60
2018-07-16T12:09:42.158Z,31.50
2018-07-16T12:12:11.987Z,32.30
2018-07-16T12:14:40.931Z,29.30
2018-07-16T12:17:10.012Z,30.60
2018-07-16T12:19:39.669Z,29.70
2018-07-16T12:22:08.845Z,31.30
2018-07-16T12:24:38.269Z,30.10
2018-07-16T12:27:08.895Z,30.20
2018-07-16T12:29:38.477Z,29.80
2018-07-16T12:32:07.496Z,29.60
2018-07-16T12:34:36.588Z,28.40
2018-07-16T12:37:05.740Z,28.60
2018-07-16T12:39:34.777Z,28.30
2018-07-16T12:42:03.998Z,30.90
2018-07-16T12:44:32.996Z,28.50
2018-07-16T12:47:02.181Z,29.70
2018-07-16T12:49:30.994Z,27.90
2018-07-16T12:52:00.685Z,28.40
2018-07-16T12:54:29.789Z,26.00
2018-07-16T12:56:58.873Z,28.30
2018-07-16T12:59:27.763Z,27.70
2018-07-16T13:01:56.703Z,27.70
2018-07-16T13:04:27.118Z,29.80
2018-07-16T13:06:56.553Z,28.50
2018-07-16T13:09:26.027Z,27.90
2018-07-16T13:11:55.521Z,27.10
2018-07-16T13:14:24.783Z,27.50
2018-07-16T13:16:54.465Z,27.90
2018-07-16T13:19:23.675Z,26.60
2018-07-16T13:21:52.776Z,26.70
2018-07-16T13:24:26.947Z,25.10
2018-07-16T13:26:56.377Z,26.10
2018-07-16T13:29:25.687Z,26.60
2018-07-16T13:31:54.989Z,28.20
2018-07-16T13:34:24.096Z,27.40
2018-07-16T13:36:54.026Z,29.30
2018-07-16T13:39:23.105Z,29.10
2018-07-16T13:41:52.407Z,27.70
2018-07-16T13:44:21.667Z,26.30
2018-07-16T13:46:50.661Z,27.30
2018-07-16T13:49:19.742Z,26.50
2018-07-16T13:51:49.014Z,27.90
2018-07-16T13:54:18.240Z,27.20
2018-07-16T13:56:48.681Z,27.00
2018-07-16T13:59:18.970Z,26.10
2018-07-16T14:01:47.902Z,26.20
2018-07-16T14:06:45.444Z,26.80
2018-07-16T14:09:14.459Z,26.60
2018-07-16T14:11:43.636Z,26.60
2018-07-16T14:14:12.695Z,26.00
2018-07-16T14:16:41.939Z,26.90
2018-07-16T14:19:10.941Z,26.50
2018-07-16T14:21:39.937Z,25.80
2018-07-16T14:24:09.146Z,26.30
2018-07-16T14:26:38.767Z,26.20
2018-07-16T14:29:07.660Z,26.10
2018-07-16T14:31:37.974Z,25.90
2018-07-16T14:34:07.140Z,25.30
2018-07-16T14:36:36.563Z,24.40
2018-07-16T14:39:07.770Z,24.30
2018-07-16T14:41:36.874Z,24.30
2018-07-16T14:44:05.855Z,25.60
2018-07-16T14:46:35.912Z,25.40
2018-07-16T14:49:05.424Z,25.90
2018-07-16T14:51:34.437Z,23.20
2018-07-16T14:54:04.153Z,24.40
2018-07-16T14:56:33.269Z,23.40
2018-07-16T14:59:02.897Z,25.50
2018-07-16T15:01:31.883Z,26.40
2018-07-16T15:04:01.135Z,25.70
2018-07-16T15:06:29.979Z,25.20
2018-07-16T15:09:00.997Z,25.50
2018-07-16T15:11:34.679Z,24.90
2018-07-16T15:14:03.895Z,24.30
2018-07-16T15:16:33.797Z,23.20
2018-07-16T15:19:03.022Z,24.10
2018-07-16T15:21:33.007Z,25.20
2018-07-16T15:24:04.530Z,24.30
2018-07-16T15:26:33.957Z,25.10
2018-07-16T15:29:03.407Z,24.80
2018-07-16T15:31:32.847Z,26.10
2018-07-16T15:34:02.561Z,26.00
2018-07-16T15:36:32.640Z,25.60
2018-07-16T15:41:30.560Z,24.90
2018-07-16T15:44:01.156Z,25.10
2018-07-16T15:46:31.429Z,24.70
2018-07-16T15:49:00.782Z,26.20
2018-07-16T15:51:31.888Z,25.30
2018-07-16T15:54:01.284Z,25.00
2018-07-16T15:56:31.125Z,24.80
2018-07-16T15:59:01.435Z,25.80
2018-07-16T16:04:23.337Z,23.80
2018-07-16T16:06:53.182Z,26.10
2018-07-16T16:09:29.040Z,25.30
2018-07-16T16:11:58.534Z,25.90
2018-07-16T16:14:28.265Z,25.30
2018-07-16T16:16:57.652Z,25.50
2018-07-16T16:19:27.930Z,24.70
2018-07-16T16:21:57.378Z,26.30
2018-07-16T16:24:29.367Z,25.90
2018-07-16T16:26:58.763Z,25.70
2018-07-16T16:29:28.342Z,25.70
2018-07-16T16:31:57.592Z,26.90
2018-07-16T16:34:27.076Z,26.90
2018-07-16T16:36:57.537Z,26.70
2018-07-16T16:39:28.516Z,26.60
2018-07-16T16:41:59.391Z,25.90
2018-07-16T16:44:28.572Z,27.50
2018-07-16T16:46:57.560Z,27.40
2018-07-16T16:54:23.569Z,27.70
2018-07-16T16:56:52.624Z,26.70
2018-07-16T16:59:21.828Z,26.80
2018-07-16T17:01:50.731Z,27.20
2018-07-16T17:04:19.665Z,28.00
2018-07-16T17:06:48.720Z,28.10
2018-07-16T17:09:17.742Z,27.70
2018-07-16T17:11:48.074Z,28.20
2018-07-16T17:14:16.847Z,28.20
2018-07-16T17:16:45.728Z,28.00
2018-07-16T17:21:43.352Z,28.90
2018-07-16T17:24:12.262Z,28.90
2018-07-16T17:26:41.883Z,29.20
2018-07-16T17:29:11.266Z,29.50
2018-07-16T17:31:40.241Z,31.20
2018-07-16T17:34:09.680Z,30.20
2018-07-16T17:36:38.688Z,30.60
2018-07-16T17:39:09.071Z,30.60
2018-07-16T17:41:38.290Z,30.90
2018-07-16T17:44:07.433Z,31.10
2018-07-16T17:46:36.391Z,30.60
2018-07-16T17:49:05.441Z,30.80
2018-07-16T17:51:34.539Z,30.80
2018-07-16T17:54:03.316Z,30.70
2018-07-16T17:56:32.440Z,31.10
2018-07-16T17:59:01.538Z,32.30
2018-07-16T18:01:30.700Z,32.40
2018-07-16T18:03:59.839Z,31.90
2018-07-16T18:06:29.384Z,32.40
2018-07-16T18:08:58.462Z,32.40
2018-07-16T18:11:27.543Z,32.60
2018-07-16T18:13:56.696Z,33.30
2018-07-16T18:16:25.760Z,34.00
2018-07-16T18:18:55.071Z,34.60
2018-07-16T18:21:24.554Z,34.70
2018-07-16T18:23:54.061Z,34.90
2018-07-16T18:26:23.348Z,34.70
2018-07-16T18:28:52.599Z,35.20
2018-07-16T18:31:21.681Z,35.40
2018-07-16T18:33:50.823Z,35.10
2018-07-16T18:36:20.511Z,35.10
2018-07-16T18:38:49.784Z,35.60
2018-07-16T18:41:19.522Z,36.10
2018-07-16T18:43:49.228Z,36.30
2018-07-16T18:46:18.477Z,36.50
2018-07-16T18:48:48.762Z,36.90
2018-07-16T18:51:18.209Z,37.10
2018-07-16T18:53:47.835Z,37.30
2018-07-16T18:56:16.927Z,37.40
2018-07-16T18:58:46.588Z,38.10
2018-07-16T19:01:16.046Z,38.60
2018-07-16T19:03:45.587Z,38.90
2018-07-16T19:06:15.108Z,39.10
2018-07-16T19:08:44.079Z,39.20
2018-07-16T19:11:13.033Z,39.80
2018-07-16T19:13:42.495Z,40.40
2018-07-16T19:16:11.548Z,40.50
2018-07-16T19:18:42.120Z,41.20
2018-07-16T19:21:10.945Z,41.80
2018-07-16T19:23:39.863Z,42.90
2018-07-16T19:26:08.831Z,42.30
2018-07-16T19:28:37.936Z,43.10
2018-07-16T19:31:06.904Z,43.80
2018-07-16T19:33:35.956Z,43.70
2018-07-16T19:36:05.214Z,43.60
2018-07-16T19:38:34.752Z,44.00
2018-07-16T19:41:03.991Z,44.20
2018-07-16T19:43:33.031Z,44.50
2018-07-16T19:46:02.123Z,44.70
2018-07-16T19:48:31.868Z,45.40
2018-07-16T19:51:00.940Z,45.60
2018-07-16T19:53:29.865Z,45.90
2018-07-16T19:55:59.046Z,46.20
2018-07-16T19:58:29.336Z,46.50
2018-07-16T20:00:58.308Z,46.80
2018-07-16T20:03:27.415Z,47.20
2018-07-16T20:05:56.593Z,47.70
2018-07-16T20:08:25.760Z,47.90
2018-07-16T20:10:54.570Z,48.30
2018-07-16T20:13:24.357Z,48.60
2018-07-16T20:15:54.150Z,48.60
2018-07-16T20:20:58.985Z,48.50
2018-07-16T20:23:28.084Z,48.70
2018-07-16T20:25:58.380Z,48.80
2018-07-16T20:28:27.943Z,49.00
2018-07-16T20:30:57.806Z,49.20
2018-07-16T20:33:26.774Z,49.40
2018-07-16T20:36:06.862Z,49.70
2018-07-16T20:38:36.480Z,50.10
2018-07-16T20:41:06.705Z,50.40
2018-07-16T20:43:35.568Z,51.10
2018-07-16T20:46:06.451Z,51.90
2018-07-16T20:48:35.480Z,51.90
2018-07-16T20:51:04.352Z,52.20
2018-07-16T20:53:33.941Z,53.30
2018-07-16T20:56:02.941Z,52.60
2018-07-16T20:58:31.895Z,52.70
2018-07-16T21:01:01.483Z,52.90
2018-07-16T21:03:30.466Z,53.30
2018-07-16T21:06:00.635Z,54.10
2018-07-16T21:08:29.461Z,54.00
2018-07-16T21:10:58.461Z,54.40
2018-07-16T21:13:27.466Z,54.80
2018-07-16T21:15:57.060Z,55.00
2018-07-16T21:18:26.052Z,55.40
2018-07-16T21:20:55.104Z,55.60
2018-07-16T21:23:24.245Z,56.00
2018-07-16T21:25:53.869Z,56.30
2018-07-16T21:28:23.834Z,56.60
2018-07-16T21:30:52.993Z,56.70
2018-07-16T21:33:21.965Z,57.20
2018-07-16T21:35:50.961Z,57.70
2018-07-16T21:38:20.408Z,58.00
2018-07-16T21:40:49.560Z,58.20
2018-07-16T21:43:19.827Z,58.40
2018-07-16T21:45:48.900Z,58.70
2018-07-16T21:48:18.118Z,59.00
2018-07-16T21:50:47.771Z,59.50
2018-07-16T21:53:17.432Z,59.80
2018-07-16T21:55:46.991Z,60.40
2018-07-16T21:58:16.015Z,60.70
2018-07-16T22:00:45.146Z,60.70
2018-07-16T22:03:14.906Z,61.10
2018-07-16T22:05:44.109Z,61.10
2018-07-16T22:10:42.981Z,61.10
2018-07-16T22:13:12.154Z,61.10
2018-07-16T22:15:41.295Z,61.10
2018-07-16T22:18:11.664Z,61.10
2018-07-16T22:20:41.152Z,61.40
2018-07-16T22:23:10.845Z,61.70
2018-07-16T22:25:40.003Z,61.90
2018-07-16T22:28:08.992Z,62.10
2018-07-16T22:30:38.176Z,62.10
2018-07-16T22:35:38.299Z,62.20
2018-07-16T22:38:07.269Z,62.50
2018-07-16T22:40:36.266Z,62.60
2018-07-16T22:43:05.378Z,62.90
2018-07-16T22:45:34.483Z,63.10
2018-07-16T22:48:03.484Z,63.40
2018-07-16T22:50:32.512Z,63.50
2018-07-16T22:53:01.520Z,63.80
2018-07-16T22:55:31.244Z,64.10
2018-07-16T22:58:00.339Z,64.50
2018-07-16T23:00:29.374Z,65.10
2018-07-16T23:02:58.896Z,65.20
2018-07-16T23:05:27.940Z,65.20
2018-07-16T23:07:56.866Z,65.30
2018-07-16T23:10:26.289Z,65.50
2018-07-16T23:12:55.336Z,65.70
2018-07-16T23:15:24.525Z,65.80
2018-07-16T23:17:53.691Z,66.00
2018-07-16T23:20:22.538Z,66.80
2018-07-16T23:22:55.885Z,66.30
2018-07-16T23:25:24.939Z,66.60
2018-07-16T23:27:53.897Z,66.80
2018-07-16T23:30:23.442Z,66.90
2018-07-16T23:32:52.392Z,67.10
2018-07-16T23:35:22.615Z,67.50
2018-07-16T23:37:52.739Z,67.60
2018-07-16T23:40:22.550Z,67.40
2018-07-16T23:42:51.977Z,67.60
2018-07-16T23:45:21.676Z,67.60
2018-07-16T23:47:50.843Z,67.60
2018-07-16T23:50:19.831Z,67.60
2018-07-16T23:52:48.871Z,67.60
2018-07-16T23:55:17.957Z,67.80
2018-07-16T23:57:47.068Z,67.80
